sensor_id;sensor_type;location;lat;lon;timestamp;P1;durP1;ratioP1;P2;durP2;ratioP2
11498;SDS011;5806;48.748;9.278;2023-04-25T00:00:49;12.13;;;4.13;;
11498;SDS011;5806;48.748;9.278;2023-04-25T00:03:18;10.17;;;4.47;;
11498;SDS011;5806;48.748;9.278;2023-04-25T00:05:46;11.63;;;4.37;;
11498;SDS011;5806;48.748;9.278;2023-04-25T00:08:14;10.20;;;4.30;;
11498;SDS011;5806;48.748;9.278;2023-04-25T00:10:41;8.83;;;3.70;;
11498;SDS011;5806;48.748;9.278;2023-04-25T00:13:09;9.07;;;4.03;;
11498;SDS011;5806;48.748;9.278;2023-04-25T00:15:37;11.17;;;4.70;;
11498;SDS011;5806;48.748;9.278;2023-04-25T00:18:06;11.20;;;4.40;;
11498;SDS011;5806;48.748;9.278;2023-04-25T00:20:34;8.87;;;4.77;;
11498;SDS011;5806;48.748;9.278;2023-04-25T00:23:02;10.23;;;4.30;;
11498;SDS011;5806;48.748;9.278;2023-04-25T00:25:32;8.43;;;4.23;;
11498;SDS011;5806;48.748;9.278;2023-04-25T00:27:59;15.37;;;4.90;;
11498;SDS011;5806;48.748;9.278;2023-04-25T00:30:27;9.17;;;4.00;;
11498;SDS011;5806;48.748;9.278;2023-04-25T00:32:54;13.53;;;4.97;;
11498;SDS011;5806;48.748;9.278;2023-04-25T00:35:22;10.23;;;4.70;;
11498;SDS011;5806;48.748;9.278;2023-04-25T00:37:49;11.97;;;4.43;;
11498;SDS011;5806;48.748;9.278;2023-04-25T00:40:17;9.60;;;4.33;;
11498;SDS011;5806;48.748;9.278;2023-04-25T00:42:44;12.27;;;4.77;;
11498;SDS011;5806;48.748;9.278;2023-04-25T00:45:13;9.57;;;4.47;;
11498;SDS011;5806;48.748;9.278;2023-04-25T00:47:43;11.93;;;4.13;;
11498;SDS011;5806;48.748;9.278;2023-04-25T00:50:11;13.47;;;4.33;;
11498;SDS011;5806;48.748;9.278;2023-04-25T00:52:40;8.93;;;4.70;;
11498;SDS011;5806;48.748;9.278;2023-04-25T00:55:10;10.93;;;4.73;;
11498;SDS011;5806;48.748;9.278;2023-04-25T00:57:41;8.10;;;3.60;;
11498;SDS011;5806;48.748;9.278;2023-04-25T01:00:10;11.00;;;4.20;;
11498;SDS011;5806;48.748;9.278;2023-04-25T01:02:40;11.90;;;4.30;;
11498;SDS011;5806;48.748;9.278;2023-04-25T01:05:08;8.50;;;3.90;;
11498;SDS011;5806;48.748;9.278;2023-04-25T01:07:38;10.97;;;4.20;;
11498;SDS011;5806;48.748;9.278;2023-04-25T01:10:05;10.63;;;4.37;;
11498;SDS011;5806;48.748;9.278;2023-04-25T01:12:35;10.97;;;5.07;;
11498;SDS011;5806;48.748;9.278;2023-04-25T01:15:02;9.13;;;3.97;;
11498;SDS011;5806;48.748;9.278;2023-04-25T01:17:33;10.03;;;4.20;;
11498;SDS011;5806;48.748;9.278;2023-04-25T01:20:06;11.77;;;4.37;;
11498;SDS011;5806;48.748;9.278;2023-04-25T01:22:31;8.07;;;4.17;;
11498;SDS011;5806;48.748;9.278;2023-04-25T01:24:59;10.10;;;4.43;;
11498;SDS011;5806;48.748;9.278;2023-04-25T01:27:28;10.87;;;4.23;;
11498;SDS011;5806;48.748;9.278;2023-04-25T01:29:55;7.23;;;3.83;;
11498;SDS011;5806;48.748;9.278;2023-04-25T01:32:24;13.87;;;4.60;;
11498;SDS011;5806;48.748;9.278;2023-04-25T01:34:52;16.23;;;5.00;;
11498;SDS011;5806;48.748;9.278;2023-04-25T01:37:19;9.47;;;4.40;;
11498;SDS011;5806;48.748;9.278;2023-04-25T01:39:47;9.20;;;4.30;;
11498;SDS011;5806;48.748;9.278;2023-04-25T01:42:15;16.17;;;5.40;;
11498;SDS011;5806;48.748;9.278;2023-04-25T01:44:43;15.03;;;4.77;;
11498;SDS011;5806;48.748;9.278;2023-04-25T01:47:10;9.43;;;4.77;;
11498;SDS011;5806;48.748;9.278;2023-04-25T01:49:38;13.77;;;4.60;;
11498;SDS011;5806;48.748;9.278;2023-04-25T01:52:06;9.63;;;4.30;;
11498;SDS011;5806;48.748;9.278;2023-04-25T01:54:33;10.83;;;4.73;;
11498;SDS011;5806;48.748;9.278;2023-04-25T01:57:01;11.67;;;5.87;;
11498;SDS011;5806;48.748;9.278;2023-04-25T01:59:34;14.83;;;5.10;;
11498;SDS011;5806;48.748;9.278;2023-04-25T02:02:02;15.30;;;5.10;;
11498;SDS011;5806;48.748;9.278;2023-04-25T02:04:30;12.17;;;4.80;;
11498;SDS011;5806;48.748;9.278;2023-04-25T02:06:57;13.17;;;5.03;;
11498;SDS011;5806;48.748;9.278;2023-04-25T02:09:25;11.37;;;4.40;;
11498;SDS011;5806;48.748;9.278;2023-04-25T02:11:53;12.17;;;4.70;;
11498;SDS011;5806;48.748;9.278;2023-04-25T02:14:20;14.97;;;4.80;;
11498;SDS011;5806;48.748;9.278;2023-04-25T02:16:48;11.60;;;5.00;;
11498;SDS011;5806;48.748;9.278;2023-04-25T02:19:17;11.00;;;4.53;;
11498;SDS011;5806;48.748;9.278;2023-04-25T02:21:44;10.70;;;4.70;;
11498;SDS011;5806;48.748;9.278;2023-04-25T02:24:12;11.77;;;4.07;;
11498;SDS011;5806;48.748;9.278;2023-04-25T02:26:39;12.37;;;4.57;;
11498;SDS011;5806;48.748;9.278;2023-04-25T02:29:07;10.87;;;4.27;;
11498;SDS011;5806;48.748;9.278;2023-04-25T02:31:35;14.57;;;4.07;;
11498;SDS011;5806;48.748;9.278;2023-04-25T02:34:04;11.23;;;4.87;;
11498;SDS011;5806;48.748;9.278;2023-04-25T02:36:32;11.33;;;4.47;;
11498;SDS011;5806;48.748;9.278;2023-04-25T02:39:01;11.97;;;4.80;;
11498;SDS011;5806;48.748;9.278;2023-04-25T02:41:28;9.43;;;4.17;;
11498;SDS011;5806;48.748;9.278;2023-04-25T02:43:58;10.30;;;3.70;;
11498;SDS011;5806;48.748;9.278;2023-04-25T02:46:25;9.50;;;4.03;;
11498;SDS011;5806;48.748;9.278;2023-04-25T02:48:53;10.80;;;4.93;;
11498;SDS011;5806;48.748;9.278;2023-04-25T02:51:20;10.67;;;3.47;;
11498;SDS011;5806;48.748;9.278;2023-04-25T02:53:48;7.03;;;3.73;;
11498;SDS011;5806;48.748;9.278;2023-04-25T02:56:15;9.57;;;4.10;;
11498;SDS011;5806;48.748;9.278;2023-04-25T02:58:43;6.73;;;3.67;;
11498;SDS011;5806;48.748;9.278;2023-04-25T03:01:10;10.90;;;4.20;;
11498;SDS011;5806;48.748;9.278;2023-04-25T03:03:38;8.17;;;4.10;;
11498;SDS011;5806;48.748;9.278;2023-04-25T03:06:06;9.77;;;3.90;;
11498;SDS011;5806;48.748;9.278;2023-04-25T03:08:33;8.27;;;4.00;;
11498;SDS011;5806;48.748;9.278;2023-04-25T03:11:01;8.70;;;4.60;;
11498;SDS011;5806;48.748;9.278;2023-04-25T03:13:28;10.17;;;4.87;;
11498;SDS011;5806;48.748;9.278;2023-04-25T03:15:56;12.17;;;5.53;;
11498;SDS011;5806;48.748;9.278;2023-04-25T03:18:24;10.63;;;4.20;;
11498;SDS011;5806;48.748;9.278;2023-04-25T03:20:51;7.27;;;4.30;;
11498;SDS011;5806;48.748;9.278;2023-04-25T03:23:19;9.07;;;4.37;;
11498;SDS011;5806;48.748;9.278;2023-04-25T03:25:47;7.87;;;4.00;;
11498;SDS011;5806;48.748;9.278;2023-04-25T03:28:14;10.43;;;4.27;;
11498;SDS011;5806;48.748;9.278;2023-04-25T03:30:42;7.00;;;3.20;;
11498;SDS011;5806;48.748;9.278;2023-04-25T03:33:09;9.57;;;3.50;;
11498;SDS011;5806;48.748;9.278;2023-04-25T03:35:37;7.73;;;3.20;;
11498;SDS011;5806;48.748;9.278;2023-04-25T03:38:04;9.77;;;3.30;;
11498;SDS011;5806;48.748;9.278;2023-04-25T03:40:33;9.73;;;3.53;;
11498;SDS011;5806;48.748;9.278;2023-04-25T03:43:01;11.50;;;4.33;;
11498;SDS011;5806;48.748;9.278;2023-04-25T03:45:28;7.70;;;3.33;;
11498;SDS011;5806;48.748;9.278;2023-04-25T03:47:56;9.53;;;3.57;;
11498;SDS011;5806;48.748;9.278;2023-04-25T03:50:23;8.80;;;3.73;;
11498;SDS011;5806;48.748;9.278;2023-04-25T03:52:51;6.53;;;3.27;;
11498;SDS011;5806;48.748;9.278;2023-04-25T03:55:19;13.27;;;4.03;;
11498;SDS011;5806;48.748;9.278;2023-04-25T03:57:46;7.97;;;3.37;;
11498;SDS011;5806;48.748;9.278;2023-04-25T04:00:15;7.80;;;3.17;;
11498;SDS011;5806;48.748;9.278;2023-04-25T04:02:42;6.70;;;2.90;;
11498;SDS011;5806;48.748;9.278;2023-04-25T04:05:10;8.23;;;2.90;;
11498;SDS011;5806;48.748;9.278;2023-04-25T04:07:38;7.23;;;3.27;;
11498;SDS011;5806;48.748;9.278;2023-04-25T04:10:07;8.53;;;3.20;;
11498;SDS011;5806;48.748;9.278;2023-04-25T04:12:38;7.63;;;3.10;;
11498;SDS011;5806;48.748;9.278;2023-04-25T04:15:05;6.07;;;3.20;;
11498;SDS011;5806;48.748;9.278;2023-04-25T04:17:33;9.73;;;3.23;;
11498;SDS011;5806;48.748;9.278;2023-04-25T04:20:01;7.50;;;3.20;;
11498;SDS011;5806;48.748;9.278;2023-04-25T04:22:29;7.23;;;3.50;;
11498;SDS011;5806;48.748;9.278;2023-04-25T04:24:57;8.57;;;3.87;;
11498;SDS011;5806;48.748;9.278;2023-04-25T04:27:24;12.60;;;4.30;;
11498;SDS011;5806;48.748;9.278;2023-04-25T04:29:53;6.07;;;3.43;;
11498;SDS011;5806;48.748;9.278;2023-04-25T04:32:21;8.33;;;3.50;;
11498;SDS011;5806;48.748;9.278;2023-04-25T04:34:49;7.33;;;3.73;;
11498;SDS011;5806;48.748;9.278;2023-04-25T04:37:18;13.80;;;3.57;;
11498;SDS011;5806;48.748;9.278;2023-04-25T04:39:46;8.50;;;4.27;;
11498;SDS011;5806;48.748;9.278;2023-04-25T04:42:13;8.43;;;4.20;;
11498;SDS011;5806;48.748;9.278;2023-04-25T04:44:41;11.70;;;4.73;;
11498;SDS011;5806;48.748;9.278;2023-04-25T04:47:10;12.73;;;5.17;;
11498;SDS011;5806;48.748;9.278;2023-04-25T04:49:39;11.57;;;5.13;;
11498;SDS011;5806;48.748;9.278;2023-04-25T04:52:07;11.80;;;5.00;;
11498;SDS011;5806;48.748;9.278;2023-04-25T04:54:34;9.23;;;4.77;;
11498;SDS011;5806;48.748;9.278;2023-04-25T04:57:02;11.00;;;4.97;;
11498;SDS011;5806;48.748;9.278;2023-04-25T04:59:30;11.23;;;5.27;;
11498;SDS011;5806;48.748;9.278;2023-04-25T05:01:58;14.50;;;6.13;;
11498;SDS011;5806;48.748;9.278;2023-04-25T05:04:25;9.77;;;5.10;;
11498;SDS011;5806;48.748;9.278;2023-04-25T05:06:53;9.47;;;5.17;;
11498;SDS011;5806;48.748;9.278;2023-04-25T05:09:20;11.77;;;5.53;;
11498;SDS011;5806;48.748;9.278;2023-04-25T05:11:49;15.90;;;5.50;;
11498;SDS011;5806;48.748;9.278;2023-04-25T05:14:17;14.87;;;5.87;;
11498;SDS011;5806;48.748;9.278;2023-04-25T05:16:44;12.00;;;6.00;;
11498;SDS011;5806;48.748;9.278;2023-04-25T05:19:12;13.43;;;6.40;;
11498;SDS011;5806;48.748;9.278;2023-04-25T05:21:39;18.97;;;6.23;;
11498;SDS011;5806;48.748;9.278;2023-04-25T05:24:08;16.83;;;6.63;;
11498;SDS011;5806;48.748;9.278;2023-04-25T05:26:36;16.47;;;6.37;;
11498;SDS011;5806;48.748;9.278;2023-04-25T05:29:04;13.27;;;6.23;;
11498;SDS011;5806;48.748;9.278;2023-04-25T05:31:31;10.97;;;5.87;;
11498;SDS011;5806;48.748;9.278;2023-04-25T05:33:59;14.27;;;6.73;;
11498;SDS011;5806;48.748;9.278;2023-04-25T05:36:26;17.37;;;5.97;;
11498;SDS011;5806;48.748;9.278;2023-04-25T05:38:54;16.10;;;5.57;;
11498;SDS011;5806;48.748;9.278;2023-04-25T05:41:21;13.30;;;5.53;;
11498;SDS011;5806;48.748;9.278;2023-04-25T05:43:49;10.83;;;5.13;;
11498;SDS011;5806;48.748;9.278;2023-04-25T05:46:16;14.40;;;5.30;;
11498;SDS011;5806;48.748;9.278;2023-04-25T05:48:43;14.33;;;5.33;;
11498;SDS011;5806;48.748;9.278;2023-04-25T05:51:11;15.43;;;5.47;;
11498;SDS011;5806;48.748;9.278;2023-04-25T05:53:38;16.20;;;5.43;;
11498;SDS011;5806;48.748;9.278;2023-04-25T05:56:06;12.47;;;5.27;;
11498;SDS011;5806;48.748;9.278;2023-04-25T05:58:34;17.47;;;5.83;;
11498;SDS011;5806;48.748;9.278;2023-04-25T06:01:01;17.80;;;5.70;;
11498;SDS011;5806;48.748;9.278;2023-04-25T06:03:30;20.87;;;5.43;;
11498;SDS011;5806;48.748;9.278;2023-04-25T06:05:57;17.83;;;5.50;;
11498;SDS011;5806;48.748;9.278;2023-04-25T06:08:25;18.13;;;5.40;;
11498;SDS011;5806;48.748;9.278;2023-04-25T06:10:52;13.53;;;4.67;;
11498;SDS011;5806;48.748;9.278;2023-04-25T06:13:20;18.03;;;5.47;;
11498;SDS011;5806;48.748;9.278;2023-04-25T06:15:47;19.60;;;5.67;;
11498;SDS011;5806;48.748;9.278;2023-04-25T06:18:14;15.67;;;5.50;;
11498;SDS011;5806;48.748;9.278;2023-04-25T06:20:42;16.43;;;5.50;;
11498;SDS011;5806;48.748;9.278;2023-04-25T06:23:09;18.10;;;5.50;;
11498;SDS011;5806;48.748;9.278;2023-04-25T06:25:37;20.43;;;6.57;;
11498;SDS011;5806;48.748;9.278;2023-04-25T06:28:04;18.03;;;5.70;;
11498;SDS011;5806;48.748;9.278;2023-04-25T06:30:32;19.33;;;5.00;;
11498;SDS011;5806;48.748;9.278;2023-04-25T06:33:00;17.30;;;5.03;;
11498;SDS011;5806;48.748;9.278;2023-04-25T06:35:28;16.10;;;4.80;;
11498;SDS011;5806;48.748;9.278;2023-04-25T06:37:55;14.07;;;5.07;;
11498;SDS011;5806;48.748;9.278;2023-04-25T06:40:23;14.30;;;4.77;;
11498;SDS011;5806;48.748;9.278;2023-04-25T06:42:50;16.40;;;4.43;;
11498;SDS011;5806;48.748;9.278;2023-04-25T06:45:18;13.00;;;4.63;;
11498;SDS011;5806;48.748;9.278;2023-04-25T06:47:46;18.30;;;4.97;;
11498;SDS011;5806;48.748;9.278;2023-04-25T06:50:14;13.13;;;4.40;;
11498;SDS011;5806;48.748;9.278;2023-04-25T06:52:41;14.67;;;4.17;;
11498;SDS011;5806;48.748;9.278;2023-04-25T06:55:09;13.03;;;4.00;;
11498;SDS011;5806;48.748;9.278;2023-04-25T06:57:36;12.43;;;4.13;;
11498;SDS011;5806;48.748;9.278;2023-04-25T07:00:06;18.10;;;4.70;;
11498;SDS011;5806;48.748;9.278;2023-04-25T07:02:36;9.53;;;3.70;;
11498;SDS011;5806;48.748;9.278;2023-04-25T07:05:04;18.77;;;4.00;;
11498;SDS011;5806;48.748;9.278;2023-04-25T07:07:32;16.03;;;3.90;;
11498;SDS011;5806;48.748;9.278;2023-04-25T07:10:00;12.13;;;4.07;;
11498;SDS011;5806;48.748;9.278;2023-04-25T07:12:27;11.50;;;3.40;;
11498;SDS011;5806;48.748;9.278;2023-04-25T07:14:55;12.37;;;3.87;;
11498;SDS011;5806;48.748;9.278;2023-04-25T07:17:22;13.23;;;3.60;;
11498;SDS011;5806;48.748;9.278;2023-04-25T07:19:50;10.17;;;3.50;;
11498;SDS011;5806;48.748;9.278;2023-04-25T07:22:17;11.23;;;3.43;;
11498;SDS011;5806;48.748;9.278;2023-04-25T07:24:45;11.90;;;3.70;;
11498;SDS011;5806;48.748;9.278;2023-04-25T07:27:14;9.23;;;4.00;;
11498;SDS011;5806;48.748;9.278;2023-04-25T07:29:41;14.10;;;4.27;;
11498;SDS011;5806;48.748;9.278;2023-04-25T07:32:09;13.03;;;4.07;;
11498;SDS011;5806;48.748;9.278;2023-04-25T07:34:38;13.43;;;3.97;;
11498;SDS011;5806;48.748;9.278;2023-04-25T07:37:08;11.93;;;4.00;;
11498;SDS011;5806;48.748;9.278;2023-04-25T07:39:36;12.13;;;3.43;;
11498;SDS011;5806;48.748;9.278;2023-04-25T07:42:03;12.93;;;4.40;;
11498;SDS011;5806;48.748;9.278;2023-04-25T07:44:32;11.00;;;4.57;;
11498;SDS011;5806;48.748;9.278;2023-04-25T07:47:02;14.97;;;5.47;;
11498;SDS011;5806;48.748;9.278;2023-04-25T07:49:30;8.80;;;4.17;;
11498;SDS011;5806;48.748;9.278;2023-04-25T07:51:57;13.27;;;5.20;;
11498;SDS011;5806;48.748;9.278;2023-04-25T07:54:25;11.53;;;4.70;;
11498;SDS011;5806;48.748;9.278;2023-04-25T07:56:52;13.13;;;4.90;;
11498;SDS011;5806;48.748;9.278;2023-04-25T07:59:21;14.13;;;5.07;;
11498;SDS011;5806;48.748;9.278;2023-04-25T08:01:49;16.83;;;4.83;;
11498;SDS011;5806;48.748;9.278;2023-04-25T08:04:16;12.93;;;4.83;;
11498;SDS011;5806;48.748;9.278;2023-04-25T08:06:44;12.37;;;4.77;;
11498;SDS011;5806;48.748;9.278;2023-04-25T08:09:12;13.27;;;4.90;;
11498;SDS011;5806;48.748;9.278;2023-04-25T08:11:39;22.40;;;5.33;;
11498;SDS011;5806;48.748;9.278;2023-04-25T08:14:07;10.63;;;3.93;;
11498;SDS011;5806;48.748;9.278;2023-04-25T08:16:35;16.13;;;4.07;;
11498;SDS011;5806;48.748;9.278;2023-04-25T08:19:02;16.43;;;4.70;;
11498;SDS011;5806;48.748;9.278;2023-04-25T08:21:30;12.47;;;4.07;;
11498;SDS011;5806;48.748;9.278;2023-04-25T08:23:59;11.57;;;3.97;;
11498;SDS011;5806;48.748;9.278;2023-04-25T08:26:27;8.13;;;3.70;;
11498;SDS011;5806;48.748;9.278;2023-04-25T08:28:55;9.20;;;3.23;;
11498;SDS011;5806;48.748;9.278;2023-04-25T08:31:23;12.07;;;3.53;;
11498;SDS011;5806;48.748;9.278;2023-04-25T08:33:52;5.83;;;3.10;;
11498;SDS011;5806;48.748;9.278;2023-04-25T08:36:20;8.03;;;3.90;;
11498;SDS011;5806;48.748;9.278;2023-04-25T08:38:47;5.43;;;3.37;;
11498;SDS011;5806;48.748;9.278;2023-04-25T08:41:15;8.13;;;3.70;;
11498;SDS011;5806;48.748;9.278;2023-04-25T08:43:44;10.13;;;3.83;;
11498;SDS011;5806;48.748;9.278;2023-04-25T08:46:15;8.53;;;3.60;;
11498;SDS011;5806;48.748;9.278;2023-04-25T08:48:45;9.50;;;3.63;;
11498;SDS011;5806;48.748;9.278;2023-04-25T08:51:21;8.50;;;3.77;;
11498;SDS011;5806;48.748;9.278;2023-04-25T08:53:53;9.97;;;4.00;;
11498;SDS011;5806;48.748;9.278;2023-04-25T08:56:24;10.67;;;3.87;;
11498;SDS011;5806;48.748;9.278;2023-04-25T08:58:53;11.10;;;3.43;;
11498;SDS011;5806;48.748;9.278;2023-04-25T09:01:22;12.70;;;4.27;;
11498;SDS011;5806;48.748;9.278;2023-04-25T09:03:49;10.63;;;3.50;;
11498;SDS011;5806;48.748;9.278;2023-04-25T09:06:17;9.93;;;3.83;;
11498;SDS011;5806;48.748;9.278;2023-04-25T09:08:45;10.73;;;3.83;;
11498;SDS011;5806;48.748;9.278;2023-04-25T09:11:13;9.80;;;3.23;;
11498;SDS011;5806;48.748;9.278;2023-04-25T09:13:40;7.90;;;3.00;;
11498;SDS011;5806;48.748;9.278;2023-04-25T09:16:08;12.10;;;2.93;;
11498;SDS011;5806;48.748;9.278;2023-04-25T09:18:35;11.87;;;3.07;;
11498;SDS011;5806;48.748;9.278;2023-04-25T09:21:08;9.23;;;2.90;;
11498;SDS011;5806;48.748;9.278;2023-04-25T09:23:43;9.70;;;2.80;;
11498;SDS011;5806;48.748;9.278;2023-04-25T09:26:08;7.83;;;2.90;;
11498;SDS011;5806;48.748;9.278;2023-04-25T09:28:36;10.37;;;2.43;;
11498;SDS011;5806;48.748;9.278;2023-04-25T09:31:05;10.60;;;3.00;;
11498;SDS011;5806;48.748;9.278;2023-04-25T09:33:32;9.43;;;2.70;;
11498;SDS011;5806;48.748;9.278;2023-04-25T09:36:04;7.20;;;2.20;;
11498;SDS011;5806;48.748;9.278;2023-04-25T09:38:40;8.90;;;2.67;;
11498;SDS011;5806;48.748;9.278;2023-04-25T09:41:09;9.13;;;2.80;;
11498;SDS011;5806;48.748;9.278;2023-04-25T09:43:38;4.63;;;2.27;;
11498;SDS011;5806;48.748;9.278;2023-04-25T09:46:09;8.33;;;2.37;;
11498;SDS011;5806;48.748;9.278;2023-04-25T09:48:37;8.43;;;2.90;;
11498;SDS011;5806;48.748;9.278;2023-04-25T09:51:10;9.27;;;3.10;;
11498;SDS011;5806;48.748;9.278;2023-04-25T09:53:46;10.87;;;3.47;;
11498;SDS011;5806;48.748;9.278;2023-04-25T09:56:10;12.57;;;3.30;;
11498;SDS011;5806;48.748;9.278;2023-04-25T09:58:39;12.90;;;3.10;;
11498;SDS011;5806;48.748;9.278;2023-04-25T10:01:08;9.13;;;2.70;;
11498;SDS011;5806;48.748;9.278;2023-04-25T10:03:37;11.30;;;3.40;;
11498;SDS011;5806;48.748;9.278;2023-04-25T10:06:07;5.87;;;2.40;;
11498;SDS011;5806;48.748;9.278;2023-04-25T10:08:37;5.73;;;1.90;;
11498;SDS011;5806;48.748;9.278;2023-04-25T10:11:06;8.57;;;2.30;;
11498;SDS011;5806;48.748;9.278;2023-04-25T10:13:35;8.03;;;2.20;;
11498;SDS011;5806;48.748;9.278;2023-04-25T10:16:03;8.00;;;2.13;;
11498;SDS011;5806;48.748;9.278;2023-04-25T10:18:32;6.27;;;2.30;;
11498;SDS011;5806;48.748;9.278;2023-04-25T10:21:01;8.60;;;2.60;;
11498;SDS011;5806;48.748;9.278;2023-04-25T10:23:31;6.80;;;2.50;;
11498;SDS011;5806;48.748;9.278;2023-04-25T10:26:00;6.93;;;2.40;;
11498;SDS011;5806;48.748;9.278;2023-04-25T10:28:29;10.47;;;2.40;;
11498;SDS011;5806;48.748;9.278;2023-04-25T10:31:01;6.07;;;2.20;;
11498;SDS011;5806;48.748;9.278;2023-04-25T10:33:37;6.83;;;1.67;;
11498;SDS011;5806;48.748;9.278;2023-04-25T10:36:14;6.80;;;2.20;;
11498;SDS011;5806;48.748;9.278;2023-04-25T10:38:47;5.43;;;1.70;;
11498;SDS011;5806;48.748;9.278;2023-04-25T10:41:17;5.30;;;1.63;;
11498;SDS011;5806;48.748;9.278;2023-04-25T10:43:47;9.13;;;2.23;;
11498;SDS011;5806;48.748;9.278;2023-04-25T10:46:23;6.20;;;2.20;;
11498;SDS011;5806;48.748;9.278;2023-04-25T10:48:53;4.23;;;1.43;;
11498;SDS011;5806;48.748;9.278;2023-04-25T10:51:23;5.83;;;1.30;;
11498;SDS011;5806;48.748;9.278;2023-04-25T10:56:26;4.50;;;1.50;;
11498;SDS011;5806;48.748;9.278;2023-04-25T10:59:12;5.77;;;2.00;;
11498;SDS011;5806;48.748;9.278;2023-04-25T11:01:47;6.80;;;2.30;;
11498;SDS011;5806;48.748;9.278;2023-04-25T11:09:38;6.13;;;1.70;;
11498;SDS011;5806;48.748;9.278;2023-04-25T11:12:07;6.70;;;1.53;;
11498;SDS011;5806;48.748;9.278;2023-04-25T11:14:37;3.93;;;1.47;;
11498;SDS011;5806;48.748;9.278;2023-04-25T11:17:05;3.90;;;1.73;;
11498;SDS011;5806;48.748;9.278;2023-04-25T11:19:33;4.80;;;1.80;;
11498;SDS011;5806;48.748;9.278;2023-04-25T11:22:01;4.37;;;1.60;;
11498;SDS011;5806;48.748;9.278;2023-04-25T11:24:35;9.07;;;1.60;;
11498;SDS011;5806;48.748;9.278;2023-04-25T11:27:01;6.10;;;1.83;;
11498;SDS011;5806;48.748;9.278;2023-04-25T11:29:30;7.13;;;1.97;;
11498;SDS011;5806;48.748;9.278;2023-04-25T11:31:59;6.37;;;1.67;;
11498;SDS011;5806;48.748;9.278;2023-04-25T11:34:28;6.00;;;2.13;;
11498;SDS011;5806;48.748;9.278;2023-04-25T11:36:58;5.73;;;1.50;;
11498;SDS011;5806;48.748;9.278;2023-04-25T11:39:27;3.30;;;1.47;;
11498;SDS011;5806;48.748;9.278;2023-04-25T11:41:56;7.50;;;2.23;;
11498;SDS011;5806;48.748;9.278;2023-04-25T11:44:24;6.07;;;1.80;;
11498;SDS011;5806;48.748;9.278;2023-04-25T11:46:52;5.60;;;1.70;;
11498;SDS011;5806;48.748;9.278;2023-04-25T11:49:19;5.67;;;1.80;;
11498;SDS011;5806;48.748;9.278;2023-04-25T11:51:48;7.03;;;1.70;;
11498;SDS011;5806;48.748;9.278;2023-04-25T11:54:16;7.23;;;1.57;;
11498;SDS011;5806;48.748;9.278;2023-04-25T11:56:44;4.63;;;1.60;;
11498;SDS011;5806;48.748;9.278;2023-04-25T11:59:12;5.63;;;1.73;;
11498;SDS011;5806;48.748;9.278;2023-04-25T12:01:47;4.47;;;1.40;;
11498;SDS011;5806;48.748;9.278;2023-04-25T12:04:21;3.87;;;1.43;;
11498;SDS011;5806;48.748;9.278;2023-04-25T12:06:53;5.73;;;1.43;;
11498;SDS011;5806;48.748;9.278;2023-04-25T12:09:30;5.10;;;1.23;;
11498;SDS011;5806;48.748;9.278;2023-04-25T12:11:56;4.60;;;1.07;;
11498;SDS011;5806;48.748;9.278;2023-04-25T12:14:28;2.77;;;1.40;;
11498;SDS011;5806;48.748;9.278;2023-04-25T12:17:01;6.07;;;1.53;;
11498;SDS011;5806;48.748;9.278;2023-04-25T12:19:33;3.90;;;1.20;;
11498;SDS011;5806;48.748;9.278;2023-04-25T12:22:02;3.77;;;1.20;;
11498;SDS011;5806;48.748;9.278;2023-04-25T12:24:33;5.50;;;1.33;;
11498;SDS011;5806;48.748;9.278;2023-04-25T12:27:04;4.27;;;1.30;;
11498;SDS011;5806;48.748;9.278;2023-04-25T12:29:35;5.00;;;1.33;;
11498;SDS011;5806;48.748;9.278;2023-04-25T12:32:03;6.00;;;1.70;;
11498;SDS011;5806;48.748;9.278;2023-04-25T12:34:31;5.60;;;1.50;;
11498;SDS011;5806;48.748;9.278;2023-04-25T12:37:01;5.20;;;1.73;;
11498;SDS011;5806;48.748;9.278;2023-04-25T12:39:28;3.67;;;1.40;;
11498;SDS011;5806;48.748;9.278;2023-04-25T12:41:56;5.13;;;1.40;;
11498;SDS011;5806;48.748;9.278;2023-04-25T12:44:25;4.47;;;1.53;;
11498;SDS011;5806;48.748;9.278;2023-04-25T12:46:52;3.23;;;1.67;;
11498;SDS011;5806;48.748;9.278;2023-04-25T12:49:20;6.67;;;1.90;;
11498;SDS011;5806;48.748;9.278;2023-04-25T12:51:48;5.33;;;1.60;;
11498;SDS011;5806;48.748;9.278;2023-04-25T12:54:16;4.63;;;1.30;;
11498;SDS011;5806;48.748;9.278;2023-04-25T12:56:44;5.03;;;1.90;;
11498;SDS011;5806;48.748;9.278;2023-04-25T12:59:12;6.77;;;1.80;;
11498;SDS011;5806;48.748;9.278;2023-04-25T13:01:40;5.30;;;1.37;;
11498;SDS011;5806;48.748;9.278;2023-04-25T13:04:10;4.10;;;1.50;;
11498;SDS011;5806;48.748;9.278;2023-04-25T13:06:37;4.87;;;1.43;;
11498;SDS011;5806;48.748;9.278;2023-04-25T13:09:06;5.23;;;1.87;;
11498;SDS011;5806;48.748;9.278;2023-04-25T13:11:35;4.37;;;1.60;;
11498;SDS011;5806;48.748;9.278;2023-04-25T13:14:03;5.50;;;1.20;;
11498;SDS011;5806;48.748;9.278;2023-04-25T13:16:31;6.93;;;1.60;;
11498;SDS011;5806;48.748;9.278;2023-04-25T13:18:59;4.37;;;1.40;;
11498;SDS011;5806;48.748;9.278;2023-04-25T13:21:26;4.03;;;1.17;;
11498;SDS011;5806;48.748;9.278;2023-04-25T13:23:56;3.47;;;1.63;;
11498;SDS011;5806;48.748;9.278;2023-04-25T13:26:24;2.27;;;1.23;;
11498;SDS011;5806;48.748;9.278;2023-04-25T13:28:52;3.17;;;1.23;;
11498;SDS011;5806;48.748;9.278;2023-04-25T13:31:21;3.27;;;1.43;;
11498;SDS011;5806;48.748;9.278;2023-04-25T13:33:48;5.33;;;1.53;;
11498;SDS011;5806;48.748;9.278;2023-04-25T13:36:16;3.73;;;1.90;;
11498;SDS011;5806;48.748;9.278;2023-04-25T13:38:43;4.77;;;1.63;;
11498;SDS011;5806;48.748;9.278;2023-04-25T13:41:12;8.60;;;2.53;;
11498;SDS011;5806;48.748;9.278;2023-04-25T13:43:42;4.63;;;1.77;;
11498;SDS011;5806;48.748;9.278;2023-04-25T13:46:09;7.03;;;1.90;;
11498;SDS011;5806;48.748;9.278;2023-04-25T13:48:38;11.03;;;2.17;;
11498;SDS011;5806;48.748;9.278;2023-04-25T13:51:07;4.10;;;1.60;;
11498;SDS011;5806;48.748;9.278;2023-04-25T13:53:35;5.70;;;1.60;;
11498;SDS011;5806;48.748;9.278;2023-04-25T13:56:02;5.33;;;2.20;;
11498;SDS011;5806;48.748;9.278;2023-04-25T13:58:30;5.23;;;1.93;;
11498;SDS011;5806;48.748;9.278;2023-04-25T14:00:58;10.40;;;2.70;;
11498;SDS011;5806;48.748;9.278;2023-04-25T14:03:26;6.90;;;2.10;;
11498;SDS011;5806;48.748;9.278;2023-04-25T14:05:54;5.23;;;2.27;;
11498;SDS011;5806;48.748;9.278;2023-04-25T14:08:21;4.80;;;1.90;;
11498;SDS011;5806;48.748;9.278;2023-04-25T14:10:49;9.30;;;2.30;;
11498;SDS011;5806;48.748;9.278;2023-04-25T14:13:16;3.80;;;1.87;;
11498;SDS011;5806;48.748;9.278;2023-04-25T14:15:44;5.13;;;1.87;;
11498;SDS011;5806;48.748;9.278;2023-04-25T14:18:11;7.50;;;2.27;;
11498;SDS011;5806;48.748;9.278;2023-04-25T14:20:39;5.87;;;2.27;;
11498;SDS011;5806;48.748;9.278;2023-04-25T14:23:06;5.33;;;2.00;;
11498;SDS011;5806;48.748;9.278;2023-04-25T14:25:34;5.03;;;2.27;;
11498;SDS011;5806;48.748;9.278;2023-04-25T14:28:02;6.97;;;2.17;;
11498;SDS011;5806;48.748;9.278;2023-04-25T14:30:29;6.70;;;2.00;;
11498;SDS011;5806;48.748;9.278;2023-04-25T14:32:57;3.40;;;1.60;;
11498;SDS011;5806;48.748;9.278;2023-04-25T14:35:26;4.27;;;1.70;;
11498;SDS011;5806;48.748;9.278;2023-04-25T14:37:54;4.77;;;1.90;;
11498;SDS011;5806;48.748;9.278;2023-04-25T14:40:22;7.03;;;1.90;;
11498;SDS011;5806;48.748;9.278;2023-04-25T14:42:49;6.83;;;1.80;;
11498;SDS011;5806;48.748;9.278;2023-04-25T14:45:17;4.60;;;1.57;;
11498;SDS011;5806;48.748;9.278;2023-04-25T14:47:45;3.77;;;1.20;;
11498;SDS011;5806;48.748;9.278;2023-04-25T14:50:12;4.03;;;1.60;;
11498;SDS011;5806;48.748;9.278;2023-04-25T14:52:41;6.00;;;1.33;;
11498;SDS011;5806;48.748;9.278;2023-04-25T14:55:10;4.13;;;1.50;;
11498;SDS011;5806;48.748;9.278;2023-04-25T14:57:38;6.37;;;1.33;;
11498;SDS011;5806;48.748;9.278;2023-04-25T15:00:06;3.27;;;1.10;;
11498;SDS011;5806;48.748;9.278;2023-04-25T15:02:35;3.23;;;1.10;;
11498;SDS011;5806;48.748;9.278;2023-04-25T15:05:03;2.90;;;0.80;;
11498;SDS011;5806;48.748;9.278;2023-04-25T15:07:34;5.17;;;1.20;;
11498;SDS011;5806;48.748;9.278;2023-04-25T15:10:01;4.43;;;1.53;;